createdAt,value
2018-04-19T00:02:20.331Z,30.67
2018-04-19T00:04:48.683Z,32.27
2018-04-19T00:07:16.199Z,31.17
2018-04-19T00:09:44.497Z,30.30
2018-04-19T00:12:12.059Z,30.87
2018-04-19T00:14:39.620Z,32.53
2018-04-19T00:17:07.215Z,33.20
2018-04-19T00:19:34.757Z,30.63
2018-04-19T00:22:02.327Z,31.47
2018-04-19T00:24:29.912Z,29.93
2018-04-19T00:26:58.298Z,29.77
2018-04-19T00:29:26.617Z,30.43
2018-04-19T00:31:54.152Z,30.67
2018-04-19T00:34:21.738Z,30.90
2018-04-19T00:36:49.298Z,28.73
2018-04-19T00:39:16.854Z,27.77
2018-04-19T00:41:44.412Z,30.73
2018-04-19T00:44:11.956Z,31.30
2018-04-19T00:46:39.545Z,32.17
2018-04-19T00:49:07.119Z,30.80
2018-04-19T00:51:34.643Z,31.10
2018-04-19T00:54:02.219Z,33.60
2018-04-19T00:56:29.799Z,31.73
2018-04-19T00:58:57.387Z,33.30
2018-04-19T01:01:25.684Z,33.10
2018-04-19T01:03:53.312Z,32.03
2018-04-19T01:06:21.745Z,31.20
2018-04-19T01:08:49.407Z,32.17
2018-04-19T01:11:16.970Z,30.23
2018-04-19T01:13:44.539Z,28.80
2018-04-19T01:16:12.188Z,29.67
2018-04-19T01:18:39.785Z,28.73
2018-04-19T01:21:07.316Z,29.37
2018-04-19T01:23:34.868Z,32.80
2018-04-19T01:26:02.431Z,35.60
2018-04-19T01:28:29.989Z,34.43
2018-04-19T01:30:57.547Z,34.30
2018-04-19T01:33:25.122Z,34.90
2018-04-19T01:36:04.511Z,31.33
2018-04-19T01:38:32.887Z,31.93
2018-04-19T01:41:01.198Z,31.90
2018-04-19T01:43:28.784Z,30.43
2018-04-19T01:45:56.325Z,28.90
2018-04-19T01:48:23.976Z,30.97
2018-04-19T01:50:51.523Z,32.43
2018-04-19T01:53:19.080Z,32.77
2018-04-19T01:55:46.683Z,35.47
2018-04-19T01:58:14.281Z,33.37
2018-04-19T02:00:42.581Z,35.43
2018-04-19T02:03:10.122Z,32.90
2018-04-19T02:05:38.474Z,33.00
2018-04-19T02:08:06.807Z,34.50
2018-04-19T02:10:39.281Z,35.90
2018-04-19T02:13:06.847Z,37.60
2018-04-19T02:15:34.369Z,38.57
2018-04-19T02:18:02.674Z,38.93
2018-04-19T02:20:30.224Z,36.30
2018-04-19T02:22:57.793Z,36.03
2018-04-19T02:25:25.317Z,33.00
2018-04-19T02:27:53.637Z,30.73
2018-04-19T02:30:21.189Z,30.20
2018-04-19T02:32:48.730Z,30.27
2018-04-19T02:35:16.259Z,33.40
2018-04-19T02:37:43.824Z,31.20
2018-04-19T02:40:12.171Z,30.80
2018-04-19T02:42:39.829Z,30.43
2018-04-19T02:45:07.362Z,30.17
2018-04-19T02:47:34.928Z,30.47
2018-04-19T02:50:02.482Z,30.73
2018-04-19T02:52:30.029Z,31.37
2018-04-19T02:54:57.610Z,29.97
2018-04-19T02:57:25.155Z,31.00
2018-04-19T02:59:52.785Z,34.43
2018-04-19T03:02:21.103Z,33.07
2018-04-19T03:04:48.655Z,30.73
2018-04-19T03:07:16.418Z,28.40
2018-04-19T03:09:43.969Z,30.57
2018-04-19T03:12:11.526Z,32.37
2018-04-19T03:14:39.301Z,29.67
2018-04-19T03:17:06.824Z,30.30
2018-04-19T03:19:34.346Z,30.93
2018-04-19T03:22:01.890Z,32.43
2018-04-19T03:24:29.406Z,28.53
2018-04-19T03:26:57.723Z,29.90
2018-04-19T03:29:25.307Z,29.43
2018-04-19T03:31:52.966Z,27.63
2018-04-19T03:34:20.620Z,30.33
2018-04-19T03:36:48.170Z,30.03
2018-04-19T03:39:15.748Z,30.53
2018-04-19T03:41:44.964Z,29.97
2018-04-19T03:44:13.276Z,31.03
2018-04-19T03:46:40.848Z,28.70
2018-04-19T03:49:08.416Z,29.53
2018-04-19T03:51:35.997Z,30.50
2018-04-19T03:54:03.554Z,26.27
2018-04-19T03:56:31.138Z,28.30
2018-04-19T03:58:59.490Z,29.60
2018-04-19T04:01:27.038Z,30.80
2018-04-19T04:03:54.674Z,29.73
2018-04-19T04:06:22.282Z,29.10
2018-04-19T04:08:50.626Z,26.83
2018-04-19T04:11:18.217Z,28.80
2018-04-19T04:13:45.870Z,28.93
2018-04-19T04:16:25.454Z,28.03
2018-04-19T04:19:16.189Z,25.93
2018-04-19T04:21:55.626Z,28.13
2018-04-19T04:24:23.215Z,28.83
2018-04-19T04:26:50.887Z,29.73
2018-04-19T04:29:18.550Z,27.43
2018-04-19T04:31:46.172Z,26.50
2018-04-19T04:34:13.741Z,27.67
2018-04-19T04:36:41.304Z,31.50
2018-04-19T04:39:08.842Z,35.87
2018-04-19T04:41:36.367Z,35.53
2018-04-19T04:44:04.690Z,36.77
2018-04-19T04:46:32.228Z,40.87
2018-04-19T04:48:59.778Z,36.33
2018-04-19T04:51:27.326Z,39.37
2018-04-19T04:53:55.651Z,38.60
2018-04-19T04:56:23.260Z,38.60
2018-04-19T04:58:51.571Z,36.90
2018-04-19T05:01:19.123Z,40.27
2018-04-19T05:03:46.689Z,40.10
2018-04-19T05:06:14.240Z,35.70
2018-04-19T05:08:41.780Z,40.17
2018-04-19T05:11:10.092Z,35.50
2018-04-19T05:13:37.646Z,41.37
2018-04-19T05:16:05.214Z,43.63
2018-04-19T05:18:32.736Z,44.33
2018-04-19T05:21:01.052Z,44.23
2018-04-19T05:23:28.599Z,42.90
2018-04-19T05:25:56.142Z,39.13
2018-04-19T05:28:23.696Z,40.03
2018-04-19T05:30:51.265Z,37.93
2018-04-19T05:33:18.824Z,40.30
2018-04-19T05:35:46.360Z,36.93
2018-04-19T05:38:14.705Z,36.40
2018-04-19T05:40:42.321Z,36.97
2018-04-19T05:43:09.876Z,35.60
2018-04-19T05:45:37.656Z,38.00
2018-04-19T05:48:05.210Z,36.57
2018-04-19T05:50:32.760Z,33.87
2018-04-19T05:53:00.326Z,33.30
2018-04-19T05:55:27.894Z,34.07
2018-04-19T05:57:55.447Z,34.20
2018-04-19T06:00:23.112Z,37.70
2018-04-19T06:02:50.663Z,35.00
2018-04-19T06:05:18.264Z,35.43
2018-04-19T06:07:45.798Z,35.13
2018-04-19T06:10:13.491Z,36.13
2018-04-19T06:12:41.019Z,33.83
2018-04-19T06:15:08.582Z,36.13
2018-04-19T06:17:36.172Z,35.33
2018-04-19T06:20:03.754Z,33.33
2018-04-19T06:22:32.054Z,33.73
2018-04-19T06:24:59.725Z,34.70
2018-04-19T06:27:27.200Z,32.93
2018-04-19T06:29:54.966Z,33.80
2018-04-19T06:32:22.506Z,33.47
2018-04-19T06:34:50.031Z,30.30
2018-04-19T06:37:18.383Z,30.23
2018-04-19T06:39:46.755Z,31.10
2018-04-19T06:42:14.277Z,29.67
2018-04-19T06:44:41.931Z,27.43
2018-04-19T06:47:09.490Z,27.63
2018-04-19T06:49:37.034Z,28.90
2018-04-19T06:52:05.336Z,27.17
2018-04-19T06:54:32.911Z,25.77
2018-04-19T06:57:00.483Z,25.60
2018-04-19T06:59:28.013Z,26.93
2018-04-19T07:01:55.676Z,26.87
2018-04-19T07:04:23.197Z,26.70
2018-04-19T07:06:51.485Z,27.40
2018-04-19T07:09:19.786Z,26.40
2018-04-19T07:11:47.336Z,26.43
2018-04-19T07:14:14.920Z,25.30
2018-04-19T07:16:42.481Z,23.90
2018-04-19T07:19:10.025Z,26.67
2018-04-19T07:21:37.590Z,25.10
2018-04-19T07:24:05.106Z,26.60
2018-04-19T07:26:33.398Z,25.57
2018-04-19T07:29:00.989Z,26.87
2018-04-19T07:31:28.549Z,28.37
2018-04-19T07:33:56.097Z,24.13
2018-04-19T07:36:23.666Z,23.97
2018-04-19T07:38:51.247Z,25.00
2018-04-19T07:41:18.798Z,23.80
2018-04-19T07:43:46.347Z,26.00
2018-04-19T07:46:13.894Z,26.00
2018-04-19T07:48:41.446Z,24.20
2018-04-19T07:51:08.981Z,24.43
2018-04-19T07:53:37.302Z,23.73
2018-04-19T07:56:04.859Z,26.50
2018-04-19T07:58:32.436Z,25.37
2018-04-19T08:00:59.981Z,23.93
2018-04-19T08:03:27.550Z,25.10
2018-04-19T08:05:55.124Z,25.50
2018-04-19T08:08:22.747Z,25.93
2018-04-19T08:10:50.303Z,25.37
2018-04-19T08:13:17.888Z,28.00
2018-04-19T08:15:45.555Z,24.97
2018-04-19T08:18:13.178Z,27.13
2018-04-19T08:20:40.733Z,26.13
2018-04-19T08:23:08.308Z,26.60
2018-04-19T08:25:35.879Z,27.83
2018-04-19T08:28:03.452Z,26.77
2018-04-19T08:30:31.053Z,26.00
2018-04-19T08:32:59.374Z,26.40
2018-04-19T08:35:26.970Z,27.30
2018-04-19T08:37:54.616Z,26.10
2018-04-19T08:40:22.173Z,27.43
2018-04-19T08:42:49.727Z,26.77
2018-04-19T08:45:17.278Z,27.87
2018-04-19T08:47:44.833Z,28.20
2018-04-19T08:50:12.429Z,26.30
2018-04-19T08:52:39.975Z,26.93
2018-04-19T08:55:07.528Z,26.60
2018-04-19T08:57:35.158Z,22.73
2018-04-19T09:00:02.694Z,24.43
2018-04-19T09:02:30.990Z,26.80
2018-04-19T09:04:58.655Z,26.97
2018-04-19T09:07:26.237Z,27.30
2018-04-19T09:09:53.818Z,24.13
2018-04-19T09:12:21.387Z,25.77
2018-04-19T09:14:48.954Z,23.13
2018-04-19T09:17:17.305Z,18.53
2018-04-19T09:19:44.863Z,16.80
2018-04-19T09:22:12.420Z,15.57
2018-04-19T09:24:39.969Z,11.77
2018-04-19T09:27:07.485Z,10.60
2018-04-19T09:29:35.786Z,11.60
2018-04-19T09:32:03.372Z,10.47
2018-04-19T09:34:30.897Z,9.93
2018-04-19T09:36:58.419Z,9.60
2018-04-19T09:39:25.967Z,10.40
2018-04-19T09:41:54.318Z,9.10
2018-04-19T09:44:21.875Z,9.43
2018-04-19T09:46:49.409Z,10.10
2018-04-19T09:49:16.973Z,9.17
2018-04-19T09:51:44.511Z,9.80
2018-04-19T09:54:12.891Z,9.07
2018-04-19T09:56:40.514Z,9.43
2018-04-19T09:59:11.714Z,10.80
2018-04-19T10:01:44.884Z,10.00
2018-04-19T10:04:14.264Z,10.70
2018-04-19T10:06:41.741Z,11.20
2018-04-19T10:09:10.030Z,10.30
2018-04-19T10:11:37.647Z,10.90
2018-04-19T10:14:05.258Z,9.60
2018-04-19T10:16:32.806Z,10.50
2018-04-19T10:19:00.359Z,12.60
2018-04-19T10:21:28.129Z,10.17
2018-04-19T10:23:55.623Z,11.90
2018-04-19T10:26:23.152Z,12.10
2018-04-19T10:28:50.707Z,12.17
2018-04-19T10:31:18.290Z,13.40
2018-04-19T10:33:45.976Z,13.37
2018-04-19T10:36:13.710Z,14.10
2018-04-19T10:38:41.270Z,13.90
2018-04-19T10:41:08.810Z,12.80
2018-04-19T10:43:36.393Z,12.33
2018-04-19T10:46:03.969Z,12.33
2018-04-19T10:48:31.518Z,12.70
2018-04-19T10:50:59.169Z,10.60
2018-04-19T10:53:26.732Z,11.60
2018-04-19T10:55:54.282Z,11.90
2018-04-19T10:58:21.826Z,13.37
2018-04-19T11:00:49.375Z,11.20
2018-04-19T11:03:17.670Z,10.97
2018-04-19T11:05:45.247Z,10.97
2018-04-19T11:08:12.816Z,11.53
2018-04-19T11:10:40.351Z,11.90
2018-04-19T11:13:07.939Z,12.07
2018-04-19T11:15:35.466Z,13.40
2018-04-19T11:18:03.138Z,15.60
2018-04-19T11:20:30.700Z,15.77
2018-04-19T11:22:58.283Z,18.77
2018-04-19T11:25:25.830Z,18.60
2018-04-19T11:27:53.377Z,19.30
2018-04-19T11:30:21.063Z,18.83
2018-04-19T11:32:48.597Z,19.57
2018-04-19T11:35:16.256Z,20.37
2018-04-19T11:37:43.925Z,20.40
2018-04-19T11:40:11.483Z,18.10
2018-04-19T11:42:39.039Z,19.57
2018-04-19T11:45:06.626Z,18.13
2018-04-19T11:47:34.183Z,19.77
2018-04-19T11:50:01.756Z,22.90
2018-04-19T11:52:29.322Z,21.27
2018-04-19T11:54:56.888Z,19.37
2018-04-19T11:57:25.182Z,19.10
2018-04-19T11:59:53.526Z,18.00
2018-04-19T12:02:21.053Z,20.60
2018-04-19T12:04:48.575Z,21.47
2018-04-19T12:07:16.915Z,19.97
2018-04-19T12:09:44.440Z,19.00
2018-04-19T12:12:11.981Z,16.33
2018-04-19T12:14:39.502Z,14.77
2018-04-19T12:17:07.811Z,14.43
2018-04-19T12:19:35.353Z,14.23
2018-04-19T12:22:03.670Z,12.03
2018-04-19T12:24:31.255Z,16.10
2018-04-19T12:26:58.806Z,19.50
2018-04-19T12:29:26.479Z,20.30
2018-04-19T12:31:54.027Z,19.23
2018-04-19T12:34:21.576Z,17.97
2018-04-19T12:36:49.114Z,17.50
2018-04-19T12:39:16.670Z,15.00
2018-04-19T12:41:44.286Z,13.90
2018-04-19T12:44:12.013Z,14.63
2018-04-19T12:46:39.672Z,12.70
2018-04-19T12:49:07.224Z,14.20
2018-04-19T12:51:34.804Z,16.07
2018-04-19T12:54:02.386Z,14.20
2018-04-19T12:56:29.920Z,14.70
2018-04-19T12:58:57.478Z,14.00
2018-04-19T13:01:25.051Z,14.83
2018-04-19T13:03:52.615Z,10.90
2018-04-19T13:06:20.157Z,8.30
2018-04-19T13:08:47.697Z,9.07
2018-04-19T13:11:15.266Z,10.50
2018-04-19T13:13:42.834Z,8.70
2018-04-19T13:16:10.409Z,10.60
2018-04-19T13:18:37.991Z,8.63
2018-04-19T13:21:05.710Z,8.10
2018-04-19T13:23:33.262Z,12.73
2018-04-19T13:26:00.912Z,10.63
2018-04-19T13:28:28.433Z,8.53
2018-04-19T13:30:55.950Z,8.47
2018-04-19T13:33:23.512Z,8.13
2018-04-19T13:35:51.103Z,11.37
2018-04-19T13:38:18.651Z,12.13
2018-04-19T13:40:46.178Z,10.60
2018-04-19T13:43:13.755Z,8.20
2018-04-19T13:45:41.324Z,7.67
2018-04-19T13:48:08.850Z,6.33
2018-04-19T13:50:36.421Z,7.90
2018-04-19T13:53:04.081Z,7.93
2018-04-19T13:55:31.631Z,7.73
2018-04-19T13:57:59.158Z,7.43
2018-04-19T14:00:27.487Z,7.23
2018-04-19T14:02:55.032Z,6.60
2018-04-19T14:05:22.597Z,5.87
2018-04-19T14:07:50.152Z,6.87
2018-04-19T14:10:17.713Z,6.90
2018-04-19T14:12:45.247Z,7.53
2018-04-19T14:15:12.833Z,7.13
2018-04-19T14:17:40.395Z,6.37
2018-04-19T14:20:07.933Z,6.20
2018-04-19T14:22:35.514Z,5.90
2018-04-19T14:25:03.092Z,6.77
2018-04-19T14:27:30.655Z,7.00
2018-04-19T14:29:58.277Z,7.27
2018-04-19T14:32:25.843Z,6.80
2018-04-19T14:34:53.511Z,7.23
2018-04-19T14:37:21.055Z,6.70
2018-04-19T14:39:48.590Z,6.50
2018-04-19T14:42:16.162Z,7.20
2018-04-19T14:44:43.761Z,7.50
2018-04-19T14:47:11.291Z,5.53
2018-04-19T14:49:38.871Z,6.60
2018-04-19T14:52:06.420Z,5.70
2018-04-19T14:54:33.984Z,5.27
2018-04-19T14:57:01.577Z,7.63
2018-04-19T14:59:29.131Z,5.70
2018-04-19T15:01:56.701Z,5.43
2018-04-19T15:04:24.326Z,5.67
2018-04-19T15:06:51.918Z,6.10
2018-04-19T15:09:19.502Z,5.40
2018-04-19T15:11:47.035Z,6.73
2018-04-19T15:14:14.569Z,6.27
2018-04-19T15:16:42.226Z,7.57
2018-04-19T15:19:09.827Z,8.50
2018-04-19T15:21:37.447Z,6.50
2018-04-19T15:24:04.992Z,7.13
2018-04-19T15:26:32.536Z,6.50
2018-04-19T15:29:00.840Z,7.63
2018-04-19T15:31:28.393Z,7.67
2018-04-19T15:33:55.982Z,7.40
2018-04-19T15:36:23.525Z,7.23
2018-04-19T15:38:51.168Z,6.70
2018-04-19T15:41:18.894Z,6.37
2018-04-19T15:43:46.398Z,6.80
2018-04-19T15:46:13.957Z,7.47
2018-04-19T15:48:41.649Z,7.57
2018-04-19T15:51:09.202Z,7.10
2018-04-19T15:53:36.766Z,7.43
2018-04-19T15:56:04.346Z,5.90
2018-04-19T15:58:31.893Z,5.93
2018-04-19T16:01:00.178Z,6.40
2018-04-19T16:03:27.739Z,7.40
2018-04-19T16:05:55.389Z,6.30
2018-04-19T16:08:22.917Z,5.37
2018-04-19T16:10:50.515Z,5.37
2018-04-19T16:13:18.037Z,5.40
2018-04-19T16:15:45.583Z,5.83
2018-04-19T16:18:13.117Z,5.13
2018-04-19T16:20:41.434Z,6.37
2018-04-19T16:23:09.015Z,5.17
2018-04-19T16:25:36.594Z,5.40
2018-04-19T16:28:04.177Z,4.70
2018-04-19T16:30:32.493Z,4.97
2018-04-19T16:33:00.047Z,5.40
2018-04-19T16:35:27.557Z,4.60
2018-04-19T16:37:55.371Z,4.87
2018-04-19T16:40:22.955Z,4.70
2018-04-19T16:42:50.562Z,4.60
2018-04-19T16:45:18.145Z,5.00
2018-04-19T16:47:45.696Z,4.70
2018-04-19T16:50:13.317Z,6.03
2018-04-19T16:52:40.837Z,6.30
2018-04-19T16:55:08.394Z,8.40
2018-04-19T16:57:35.953Z,7.23
2018-04-19T17:00:03.596Z,8.07
2018-04-19T17:02:31.143Z,11.67
2018-04-19T17:04:58.665Z,8.87
2018-04-19T17:07:26.306Z,5.97
2018-04-19T17:09:53.839Z,6.53
2018-04-19T17:12:21.362Z,5.10
2018-04-19T17:14:49.699Z,6.20
2018-04-19T17:17:17.301Z,4.90
2018-04-19T17:19:45.626Z,5.33
2018-04-19T17:22:13.162Z,5.83
2018-04-19T17:24:40.727Z,5.60
2018-04-19T17:27:08.240Z,4.80
2018-04-19T17:29:36.523Z,5.33
2018-04-19T17:32:04.126Z,5.10
2018-04-19T17:34:31.769Z,4.93
2018-04-19T17:37:00.042Z,4.43
2018-04-19T17:39:28.466Z,5.40
2018-04-19T17:41:56.127Z,5.30
2018-04-19T17:44:23.695Z,5.10
2018-04-19T17:46:51.246Z,5.27
2018-04-19T17:49:18.822Z,5.57
2018-04-19T17:51:46.353Z,6.23
2018-04-19T17:54:13.880Z,6.40
2018-04-19T17:56:41.456Z,4.83
2018-04-19T17:59:09.012Z,6.27
2018-04-19T18:01:36.573Z,5.97
2018-04-19T18:04:04.172Z,5.47
2018-04-19T18:06:31.685Z,5.07
2018-04-19T18:08:59.253Z,5.20
2018-04-19T18:11:26.834Z,4.93
2018-04-19T18:13:54.399Z,6.03
2018-04-19T18:16:21.923Z,5.30
2018-04-19T18:18:49.464Z,4.60
2018-04-19T18:21:17.778Z,4.83
2018-04-19T18:23:45.328Z,5.13
2018-04-19T18:26:12.912Z,6.53
2018-04-19T18:28:40.444Z,6.07
2018-04-19T18:31:07.953Z,5.60
2018-04-19T18:33:35.483Z,5.90
2018-04-19T18:36:02.998Z,5.50
2018-04-19T18:38:30.534Z,5.57
2018-04-19T18:40:58.095Z,6.17
2018-04-19T18:43:26.435Z,5.67
2018-04-19T18:45:53.998Z,6.17
2018-04-19T18:48:21.550Z,6.20
2018-04-19T18:50:49.128Z,5.90
2018-04-19T18:53:16.704Z,5.17
2018-04-19T18:55:44.221Z,5.73
2018-04-19T18:58:11.746Z,4.97
2018-04-19T19:00:40.058Z,6.17
2018-04-19T19:03:07.622Z,6.20
2018-04-19T19:05:35.180Z,5.70
2018-04-19T19:08:02.734Z,5.87
2018-04-19T19:10:30.280Z,5.40
2018-04-19T19:12:57.805Z,6.30
2018-04-19T19:18:48.425Z,6.97
2018-04-19T19:21:16.739Z,6.90
2018-04-19T19:23:44.334Z,7.23
2018-04-19T19:26:11.933Z,6.53
2018-04-19T19:28:39.513Z,6.73
2018-04-19T19:31:07.066Z,6.33
2018-04-19T19:33:34.592Z,6.90
2018-04-19T19:36:02.174Z,5.97
2018-04-19T19:38:29.764Z,6.53
2018-04-19T19:40:57.294Z,7.63
2018-04-19T19:43:25.663Z,7.10
2018-04-19T19:45:54.007Z,7.60
2018-04-19T19:48:21.579Z,8.20
2018-04-19T19:50:49.137Z,7.07
2018-04-19T19:53:16.795Z,6.53
2018-04-19T19:55:44.442Z,7.90
2018-04-19T19:58:11.995Z,7.40
2018-04-19T20:00:39.666Z,7.53
2018-04-19T20:03:07.203Z,8.40
2018-04-19T20:05:34.733Z,9.27
2018-04-19T20:08:02.306Z,8.40
2018-04-19T20:10:29.817Z,8.57
2018-04-19T20:12:57.424Z,8.90
2018-04-19T20:15:24.982Z,8.30
2018-04-19T20:17:52.522Z,9.67
2018-04-19T20:20:20.834Z,9.53
2018-04-19T20:22:48.477Z,10.03
2018-04-19T20:25:16.047Z,9.13
2018-04-19T20:27:43.575Z,9.60
2018-04-19T20:30:11.899Z,10.00
2018-04-19T20:32:39.429Z,9.93
2018-04-19T20:35:06.976Z,10.00
2018-04-19T20:37:34.601Z,10.27
2018-04-19T20:40:02.141Z,10.77
2018-04-19T20:42:29.707Z,9.90
2018-04-19T20:44:57.245Z,11.20
2018-04-19T20:47:25.003Z,9.87
2018-04-19T20:49:52.568Z,9.70
2018-04-19T20:52:20.093Z,11.40
2018-04-19T20:54:48.455Z,11.03
2018-04-19T20:57:16.787Z,10.60
2018-04-19T20:59:44.315Z,10.00
2018-04-19T21:02:11.898Z,12.10
2018-04-19T21:04:39.452Z,12.17
2018-04-19T21:07:07.023Z,11.40
2018-04-19T21:09:34.591Z,10.77
2018-04-19T21:12:02.175Z,11.60
2018-04-19T21:14:29.724Z,12.13
2018-04-19T21:16:57.279Z,12.10
2018-04-19T21:19:24.801Z,12.20
2018-04-19T21:21:52.382Z,12.27
2018-04-19T21:24:19.950Z,15.23
2018-04-19T21:26:47.512Z,12.20
2018-04-19T21:29:15.050Z,13.10
2018-04-19T21:31:42.603Z,14.20
2018-04-19T21:34:10.155Z,13.07
2018-04-19T21:36:37.711Z,14.00
2018-04-19T21:39:05.998Z,13.10
2018-04-19T21:41:33.570Z,12.80
2018-04-19T21:44:01.102Z,14.50
2018-04-19T21:46:28.702Z,13.53
2018-04-19T21:48:56.278Z,14.97
2018-04-19T21:51:23.903Z,14.60
2018-04-19T21:53:51.474Z,14.63
2018-04-19T21:56:19.062Z,15.60
2018-04-19T21:58:46.808Z,14.20
2018-04-19T22:01:14.460Z,14.47
2018-04-19T22:03:41.988Z,14.90
2018-04-19T22:06:09.545Z,15.80
2018-04-19T22:08:37.095Z,15.90
2018-04-19T22:11:04.644Z,14.17
2018-04-19T22:13:32.994Z,14.97
2018-04-19T22:16:01.292Z,14.93
2018-04-19T22:18:29.612Z,15.50
2018-04-19T22:20:57.134Z,14.80
2018-04-19T22:23:25.456Z,16.37
2018-04-19T22:25:53.024Z,16.87
2018-04-19T22:28:20.550Z,16.47
2018-04-19T22:30:48.098Z,15.63
2018-04-19T22:33:15.679Z,14.83
2018-04-19T22:35:43.241Z,14.43
2018-04-19T22:38:10.818Z,13.97
2018-04-19T22:40:38.343Z,14.40
2018-04-19T22:43:05.933Z,15.10
2018-04-19T22:45:33.569Z,15.20
2018-04-19T22:48:01.126Z,15.70
2018-04-19T22:50:28.685Z,14.57
2018-04-19T22:52:56.257Z,15.50
2018-04-19T22:55:23.849Z,16.60
2018-04-19T22:57:51.388Z,14.63
2018-04-19T23:00:19.854Z,15.00
2018-04-19T23:02:47.507Z,15.80
2018-04-19T23:05:15.042Z,16.73
2018-04-19T23:07:43.335Z,17.60
2018-04-19T23:10:10.922Z,18.47
2018-04-19T23:12:38.490Z,17.90
2018-04-19T23:15:06.098Z,18.83
2018-04-19T23:17:34.481Z,19.33
2018-04-19T23:20:02.777Z,18.10
2018-04-19T23:22:34.393Z,18.63
2018-04-19T23:25:01.990Z,17.43
2018-04-19T23:27:29.626Z,18.20
2018-04-19T23:29:57.985Z,18.80
2018-04-19T23:32:25.582Z,19.33
2018-04-19T23:34:53.166Z,17.40
2018-04-19T23:37:20.720Z,19.03
2018-04-19T23:39:48.314Z,19.23
2018-04-19T23:42:15.879Z,17.50
2018-04-19T23:44:43.459Z,18.80
2018-04-19T23:47:11.803Z,18.97
2018-04-19T23:49:39.421Z,19.20
2018-04-19T23:52:06.985Z,19.23
2018-04-19T23:54:34.582Z,20.23
2018-04-19T23:57:02.150Z,19.10
2018-04-19T23:59:29.718Z,18.93
